Accueil
METAR-TAF:

METAR-TAF

Aéroports :

Aéroport international Maiquetía - Simón Bolívar

Caracas, Venezuela

latitude: 10-36N, longitude: 066-59W, altitude: 43 m

Observation

Le bulletin a été fait il y a 9 minutes, à 23:00 UTC
Vent 4 kt de est
Température 28°C
Humidité 79%
Pression 1009 hPa
Visibilité 10 km ou plus
Nuages épars à une hauteur de 1600 ft

METAR: SVMI 162300Z 09004KT 9999 SCT016 28/24 Q1009

Heure: 19:09 (23:09 UTC)

Prévision

Le bulletin a été fait il y a 7 heures et 9 minutes, à 16:00 UTC
Prévision valable du 16 à 18 UTC au 17 à 18 UTC
Vent 10 kt de est/nord-est
Visibilité 10 km ou plus
Nuages épars à une hauteur de 1600 ft
Evoluant progressivement
du 16 à 20 UTC au 17 à 00 UTC
Vent 7 kt de est
Visibilité 10 km ou plus
Nuages épars à une hauteur de 1600 ft

TAF: SVMI 161600Z 1618/1718 07010KT 9999 SCT016 TX33/18Z TN26/08Z BECMG 1620/1700 09007KT 9999 SCT016

Observations et prévisions météorologiques de plus de 4000 aéroports (messages METAR et TAF).

Les stations disponibles sont représentées par des disques jaunes et rouges sur la carte.

Passer la souris dessus pour voir le nom de la station.

Cliquer dessus pour voir les observations et prévisions météorologiques.

Pour changer de carte: cliquez sur les boutons verts avec une croix noire pour zoomer, sur le bouton vert avec un tiret pour effectuer un zoom arrière, ou sur les flèches vertes pour les cartes adjacentes.


METAR-TAF: